ESNQEFET

Guest
Details From ESNQ - Kiruna
To EFET - Enontekio
Flight Number -
Tags generated
Created
Modified
Stats Distance 77 nm / 142 km
Max Altitude 0 ft / 0 m
Waypoints 3
Social Downloads 3
Likes 0
Share VATSIM

Download

Looking for another format? Having issues loading an existing format? Contact us
Advertisement - Login to hide

Notes

Basic altitude profile: - Ascent Rate: 2500ft/min - Ascent Speed: 250kts - Cruise Altitude: 35000ft - Cruise Speed: 420kts - Descent Rate: 1500ft/min - Descent Speed: 250kts Options: - Use NATs: yes - Use PACOTS: yes - Use low airways: yes - Use high airways: no

Route

ESNQ KRA EFET

ID Type Via Altitude Latitude Longitude Leg Dist Tot Dist Heading (true) Name
O ESNQ APT - 0 ft / 0 m 67.82198˚ 20.33676˚ - 0 nm - Kiruna
KRA VOR - 0 ft / 0 m 67.81922˚ 20.33750˚ 0 nm 0 nm 174° / 174° KIRUNA VOR-DME
O EFET APT - 0 ft / 0 m 68.36259˚ 23.42433˚ 76 nm 76 nm 63° / 66° Enontekio

Altitude Profile

Advertisement - Login to hide

ESNQ

Details ICAO ESNQ (KRN)
Name Kiruna
Region Sweden
Timezone Europe/Stockholm (UTC+1.0)
Stats Elevation 1,508 ft / 460 m (AMSL)
Location 67.821984° 20.336762°
Runways 1
Magnetic Variation 9.075° E

METAR

ESNQ 181950Z 22004KT CAVOK M16/M18 Q1011

Decode

TAF

Not found

Departure Runways

ID Width Length Bearing (true) Bearing (mag) Surface Threshold Offset Overrun Length
03 148 ft / 45 m 8,183 ft / 2,494 m 33.63° 24.56° Asphalt 0 ft / 0 m 200 ft / 61 m
21 148 ft / 45 m 8,183 ft / 2,494 m 213.66° 204.59° Asphalt 0 ft / 0 m 200 ft / 61 m

EFET

Details ICAO EFET (ENF)
Name Enontekio
Region Finland
Timezone Europe/Helsinki (UTC+2.0)
Stats Elevation 1,005 ft / 306 m (AMSL)
Location 68.362586° 23.424328°
Runways 1
Magnetic Variation 10.909° E

METAR

EFET 181950Z AUTO 00000KT 2000 BR OVC002 M28/M31 Q1012

Decode

TAF

Not found

Destination Runways

ID Width Length Bearing (true) Bearing (mag) Surface Threshold Offset Overrun Length
03 148 ft / 45 m 6,544 ft / 1,995 m 34.65° 23.74° Asphalt 0 ft / 0 m 0 ft / 0 m
21 148 ft / 45 m 6,544 ft / 1,995 m 214.68° 203.77° Asphalt 0 ft / 0 m 0 ft / 0 m

Approach Navaids

Runway Type Ident Frequency Range Bearing (true) Bearing (mag) Slope Elevation
21 Localiser ET 111.30 MHz 18 nm / 33 km 214.64° 203.74° - 1,005 ft / 306 m (AMSL)
21 Glidescope ET 111.30 MHz 10 nm / 19 km 214.66° 203.75° 3.50° 1,005 ft / 306 m (AMSL)
21 DME ET 111.30 MHz 18 nm / 33 km - - - 1,005 ft / 306 m (AMSL)